createdAt,value
2023-05-01T03:47:58.742Z,937.55
2023-05-01T03:50:25.506Z,932.90
2023-05-01T03:52:52.144Z,931.35
2023-05-01T03:55:18.860Z,931.10
2023-05-01T03:57:47.171Z,931.38
2023-05-01T04:00:14.193Z,929.70
2023-05-01T04:02:40.996Z,936.43
2023-05-01T04:05:08.238Z,933.92
2023-05-01T04:07:35.059Z,936.17
2023-05-01T04:10:01.720Z,937.85
2023-05-01T04:12:28.364Z,930.53
2023-05-01T04:14:55.014Z,927.67
2023-05-01T04:17:21.681Z,935.78
2023-05-01T04:19:48.655Z,931.65
2023-05-01T04:22:16.059Z,928.53
2023-05-01T04:24:42.662Z,932.08
2023-05-01T04:27:09.391Z,925.70
2023-05-01T04:29:36.414Z,929.95
2023-05-01T04:32:03.219Z,930.47
2023-05-01T04:34:30.080Z,930.85
2023-05-01T04:36:59.993Z,925.80
2023-05-01T04:39:26.687Z,933.87
2023-05-01T04:41:53.332Z,929.47
2023-05-01T04:44:20.583Z,932.42
2023-05-01T04:46:47.280Z,929.92
2023-05-01T04:49:14.376Z,932.55
2023-05-01T04:51:41.021Z,934.70
2023-05-01T04:54:07.638Z,930.15
2023-05-01T04:56:34.772Z,927.65
2023-05-01T04:59:01.753Z,930.13
2023-05-01T05:01:28.414Z,928.22
2023-05-01T05:03:55.197Z,925.53
2023-05-01T05:06:22.508Z,928.28
2023-05-01T05:08:52.005Z,930.13
2023-05-01T05:11:19.296Z,930.38
2023-05-01T05:13:46.265Z,930.43
2023-05-01T05:16:13.324Z,936.15
2023-05-01T05:18:40.789Z,930.78
2023-05-01T05:21:08.603Z,931.40
2023-05-01T05:23:35.216Z,931.13
2023-05-01T05:26:02.169Z,930.55
2023-05-01T05:28:29.296Z,928.03
2023-05-01T05:30:57.060Z,930.75
2023-05-01T05:33:24.976Z,936.83
2023-05-01T05:35:52.452Z,934.90
2023-05-01T05:38:19.269Z,931.92
2023-05-01T05:40:46.141Z,935.88
2023-05-01T05:43:12.807Z,934.60
2023-05-01T05:45:39.790Z,934.97
2023-05-01T05:48:06.850Z,933.45
2023-05-01T05:50:33.712Z,929.15
2023-05-01T05:53:00.284Z,942.05
2023-05-01T05:55:28.045Z,935.33
2023-05-01T05:57:54.733Z,939.17
2023-05-01T06:00:21.511Z,943.10
2023-05-01T06:02:48.573Z,940.55
2023-05-01T06:05:15.367Z,946.22
2023-05-01T06:07:42.359Z,939.65
2023-05-01T06:10:09.705Z,942.38
2023-05-01T06:12:37.707Z,951.50
2023-05-01T06:15:09.104Z,944.38
2023-05-01T06:17:37.471Z,946.35
2023-05-01T06:20:06.168Z,954.80
2023-05-01T06:22:32.817Z,949.15
2023-05-01T06:24:59.472Z,956.58
2023-05-01T06:27:26.188Z,955.63
2023-05-01T06:29:52.804Z,963.60
2023-05-01T06:32:19.482Z,976.43
2023-05-01T06:34:46.065Z,971.53
2023-05-01T06:37:12.924Z,969.97
2023-05-01T06:39:39.620Z,977.58
2023-05-01T06:42:07.676Z,983.58
2023-05-01T06:44:34.423Z,983.42
2023-05-01T06:47:01.735Z,979.28
2023-05-01T06:49:28.529Z,981.03
2023-05-01T06:51:55.679Z,986.15
2023-05-01T06:54:22.770Z,985.28
2023-05-01T06:56:49.376Z,986.72
2023-05-01T06:59:15.978Z,982.47
2023-05-01T07:01:42.675Z,987.60
2023-05-01T07:04:09.458Z,988.60
2023-05-01T07:06:36.557Z,974.38
2023-05-01T07:09:04.148Z,970.30
2023-05-01T07:11:31.043Z,968.45
2023-05-01T07:13:57.882Z,950.80
2023-05-01T07:16:24.739Z,951.28
2023-05-01T07:18:51.445Z,951.45
2023-05-01T07:21:18.085Z,947.45
2023-05-01T07:23:44.862Z,943.60
2023-05-01T07:26:11.592Z,942.25
2023-05-01T07:28:38.817Z,940.28
2023-05-01T07:31:05.416Z,942.75
2023-05-01T07:33:32.081Z,939.97
2023-05-01T07:35:58.658Z,937.72
2023-05-01T07:38:25.356Z,940.17
2023-05-01T07:40:55.942Z,937.72
2023-05-01T07:43:23.181Z,927.75
2023-05-01T07:45:57.655Z,942.03
2023-05-01T07:48:24.767Z,941.28
2023-05-01T07:50:51.610Z,938.85
2023-05-01T07:53:18.665Z,944.40
2023-05-01T07:55:45.311Z,941.60
2023-05-01T07:58:11.898Z,939.17
2023-05-01T08:00:38.606Z,944.63
2023-05-01T08:03:05.295Z,946.47
2023-05-01T08:05:32.182Z,946.45
2023-05-01T08:07:58.781Z,945.13
2023-05-01T08:10:26.409Z,950.85
2023-05-01T08:12:53.048Z,956.03
2023-05-01T08:15:21.500Z,970.30
2023-05-01T08:17:48.141Z,973.30
2023-05-01T08:20:14.863Z,983.20
2023-05-01T08:22:41.474Z,987.80
2023-05-01T08:25:08.548Z,992.67
2023-05-01T08:27:35.324Z,994.90
2023-05-01T08:30:01.910Z,990.65
2023-05-01T08:32:28.619Z,987.90
2023-05-01T08:34:55.285Z,989.25
2023-05-01T08:37:22.131Z,997.03
2023-05-01T08:39:48.794Z,995.78
2023-05-01T08:42:15.752Z,999.85
2023-05-01T08:44:45.572Z,1000.00
2023-05-01T08:47:16.283Z,994.13
2023-05-01T08:49:44.744Z,994.67
2023-05-01T08:52:13.045Z,989.42
2023-05-01T08:54:42.945Z,994.20
2023-05-01T08:57:11.952Z,992.80
2023-05-01T08:59:39.998Z,985.85
2023-05-01T09:02:08.528Z,980.22
2023-05-01T09:04:39.045Z,973.42
2023-05-01T09:07:05.701Z,968.60
2023-05-01T09:09:33.172Z,956.15
2023-05-01T09:12:27.803Z,955.10
2023-05-01T09:14:56.502Z,953.67
2023-05-01T09:17:24.346Z,954.47
2023-05-01T09:19:52.053Z,950.38
2023-05-01T09:22:19.502Z,952.92
2023-05-01T09:24:47.013Z,947.17
2023-05-01T09:27:14.561Z,953.37
2023-05-01T09:29:46.380Z,961.63
2023-05-01T09:32:17.640Z,955.07
2023-05-01T09:34:44.719Z,961.75
2023-05-01T09:37:14.435Z,960.47
2023-05-01T09:39:41.076Z,978.07
2023-05-01T09:42:08.017Z,990.07
2023-05-01T09:44:42.323Z,989.88
2023-05-01T09:47:09.668Z,997.92
2023-05-01T09:49:45.653Z,1002.45
2023-05-01T09:52:12.323Z,1004.72
2023-05-01T09:54:39.012Z,1003.33
2023-05-01T09:57:06.336Z,995.10
2023-05-01T09:59:34.895Z,994.45
2023-05-01T10:02:01.649Z,999.60
2023-05-01T10:04:32.992Z,992.10
2023-05-01T10:07:14.825Z,999.47
2023-05-01T10:09:42.212Z,991.88
2023-05-01T10:12:08.889Z,994.55
2023-05-01T10:14:53.704Z,999.35
2023-05-01T10:17:21.171Z,992.30
2023-05-01T10:19:48.677Z,986.22
2023-05-01T10:22:16.266Z,991.35
2023-05-01T10:24:45.451Z,987.53
2023-05-01T10:27:13.138Z,983.80
2023-05-01T10:29:44.555Z,980.75
2023-05-01T10:32:11.465Z,985.70
2023-05-01T10:34:43.547Z,990.50
2023-05-01T10:37:13.922Z,990.85
2023-05-01T10:39:40.651Z,992.67
2023-05-01T10:42:13.943Z,991.13
2023-05-01T10:44:42.246Z,993.38
2023-05-01T10:47:34.653Z,996.00
2023-05-01T10:50:09.700Z,999.87
2023-05-01T10:53:14.473Z,997.17
2023-05-01T10:55:48.992Z,997.63
2023-05-01T10:58:37.467Z,999.63
2023-05-01T11:01:36.738Z,1006.70
2023-05-01T11:04:27.537Z,1004.92
2023-05-01T11:07:08.121Z,1001.00
2023-05-01T11:09:42.584Z,997.35
2023-05-01T11:12:11.257Z,998.35
2023-05-01T11:15:03.545Z,1002.03
2023-05-01T11:17:42.618Z,1006.73
2023-05-01T11:20:33.944Z,1008.45
2023-05-01T11:23:00.530Z,1018.33
2023-05-01T11:25:30.611Z,1023.70
2023-05-01T11:27:59.628Z,1017.47
2023-05-01T11:30:26.387Z,1021.08
2023-05-01T11:32:53.091Z,1022.75
2023-05-01T11:35:22.831Z,1028.63
2023-05-01T11:37:51.407Z,1031.18
2023-05-01T11:40:31.616Z,1024.45
2023-05-01T11:43:08.603Z,1029.75
2023-05-01T11:45:37.190Z,1022.33
2023-05-01T11:48:05.323Z,1013.85
2023-05-01T11:50:39.008Z,1019.40
2023-05-01T11:53:11.991Z,1014.10
2023-05-01T11:55:39.975Z,1011.67
2023-05-01T11:58:06.990Z,1009.67
2023-05-01T12:00:37.293Z,1014.33
2023-05-01T12:03:12.013Z,1009.20
2023-05-01T12:05:42.210Z,1010.15
2023-05-01T12:08:18.699Z,1010.23
2023-05-01T12:10:56.997Z,1000.80
2023-05-01T12:13:24.952Z,1005.80
2023-05-01T12:15:54.215Z,999.22
2023-05-01T12:18:22.292Z,1016.08
2023-05-01T12:20:51.840Z,1012.65
2023-05-01T12:23:20.555Z,1010.40
2023-05-01T12:25:47.352Z,1015.33
2023-05-01T12:28:19.348Z,1013.28
2023-05-01T12:30:48.021Z,1020.05
2023-05-01T12:33:22.586Z,1014.17
2023-05-01T12:35:50.601Z,1016.35
2023-05-01T12:38:21.844Z,1012.97
2023-05-01T12:40:56.913Z,1011.17
2023-05-01T12:43:34.331Z,1016.33
2023-05-01T12:46:02.264Z,1006.83
2023-05-01T12:48:30.500Z,1011.08
2023-05-01T12:50:57.588Z,1014.27
2023-05-01T12:53:26.110Z,1019.95
2023-05-01T12:55:57.378Z,1022.38
2023-05-01T12:58:34.796Z,1013.63
2023-05-01T13:01:01.584Z,1027.65
2023-05-01T13:03:29.650Z,1039.03
2023-05-01T13:06:00.366Z,1039.15
2023-05-01T13:08:32.487Z,1034.55
2023-05-01T13:11:03.967Z,1043.80
2023-05-01T13:13:34.888Z,1048.47
2023-05-01T13:16:27.645Z,1053.07
2023-05-01T13:18:54.513Z,1044.20
2023-05-01T13:21:23.002Z,1030.13
2023-05-01T13:23:56.901Z,1027.53
2023-05-01T13:26:32.936Z,1023.90
2023-05-01T13:29:01.719Z,1031.10
2023-05-01T13:31:28.633Z,1029.18
2023-05-01T13:33:57.908Z,1020.88
2023-05-01T13:36:26.577Z,1012.42
2023-05-01T13:38:56.457Z,1009.90
2023-05-01T13:41:28.948Z,1016.17
2023-05-01T13:43:57.315Z,1023.10
2023-05-01T13:46:27.068Z,1027.70
2023-05-01T13:48:53.973Z,1026.45
2023-05-01T13:51:24.987Z,1026.78
2023-05-01T13:53:53.461Z,1019.80
2023-05-01T13:56:21.570Z,1020.63
2023-05-01T13:58:48.594Z,1015.90
2023-05-01T14:01:18.565Z,1019.37
2023-05-01T14:03:45.368Z,1015.65
2023-05-01T14:06:17.501Z,1013.42
2023-05-01T14:08:46.246Z,1009.30
2023-05-01T14:11:13.373Z,1008.25
2023-05-01T14:13:41.594Z,1000.72
2023-05-01T14:16:12.965Z,1002.33
2023-05-01T14:18:47.268Z,1003.63
2023-05-01T14:21:15.775Z,993.47
2023-05-01T14:23:42.680Z,990.95
2023-05-01T14:26:11.293Z,970.03
2023-05-01T14:28:46.105Z,964.63
2023-05-01T14:31:21.489Z,961.47
2023-05-01T14:33:54.369Z,954.45
2023-05-01T14:36:20.943Z,949.67
2023-05-01T14:38:49.287Z,942.00
2023-05-01T14:41:19.435Z,942.95
2023-05-01T14:43:46.885Z,951.70
2023-05-01T14:46:15.919Z,953.28
2023-05-01T14:48:42.717Z,952.72
2023-05-01T14:51:12.364Z,947.40
2023-05-01T14:53:44.424Z,942.38
2023-05-01T14:56:12.050Z,945.85
2023-05-01T14:58:38.918Z,938.63
2023-05-01T15:01:06.031Z,932.20
2023-05-01T15:03:36.197Z,939.17
2023-05-01T15:06:04.040Z,941.13
2023-05-01T15:08:32.379Z,932.75
2023-05-01T15:10:59.446Z,949.58
2023-05-01T15:13:26.210Z,933.15
2023-05-01T15:15:52.970Z,935.15
2023-05-01T15:18:19.635Z,944.93
2023-05-01T15:20:46.462Z,951.73
2023-05-01T15:23:13.056Z,949.25
2023-05-01T15:25:39.714Z,954.60
2023-05-01T15:28:06.330Z,957.13
2023-05-01T15:30:33.024Z,972.60
2023-05-01T15:32:59.680Z,965.50
2023-05-01T15:35:26.726Z,966.45
2023-05-01T15:37:53.974Z,983.85
2023-05-01T15:40:20.588Z,974.83
2023-05-01T15:42:48.411Z,983.27
2023-05-01T15:45:15.076Z,976.22
2023-05-01T15:47:41.740Z,979.88
2023-05-01T15:50:13.404Z,983.45
2023-05-01T15:52:40.610Z,984.13
2023-05-01T15:55:07.620Z,989.20
2023-05-01T15:57:35.101Z,989.78
2023-05-01T16:00:02.183Z,999.08
2023-05-01T16:02:32.515Z,993.72
2023-05-01T16:05:00.321Z,993.92
2023-05-01T16:07:29.199Z,985.47
2023-05-01T16:09:57.527Z,985.65
2023-05-01T16:12:24.594Z,979.27
2023-05-01T16:14:51.375Z,963.30
2023-05-01T16:17:19.466Z,967.58
2023-05-01T16:19:46.676Z,955.17
2023-05-01T16:22:15.010Z,961.33
2023-05-01T16:24:41.757Z,956.70
2023-05-01T16:27:12.715Z,957.20
2023-05-01T16:29:39.504Z,978.45
2023-05-01T16:32:06.444Z,978.13
2023-05-01T16:34:33.175Z,981.90
2023-05-01T16:36:59.861Z,982.50
2023-05-01T16:39:26.697Z,984.28
2023-05-01T16:41:54.372Z,988.10
2023-05-01T16:44:22.695Z,986.03
2023-05-01T16:46:54.985Z,982.70
2023-05-01T16:49:22.984Z,990.40
2023-05-01T16:51:50.173Z,989.90
2023-05-01T16:54:18.376Z,983.40
2023-05-01T16:56:44.986Z,988.92
2023-05-01T16:59:11.651Z,979.53
2023-05-01T17:01:38.299Z,980.35
2023-05-01T17:04:05.209Z,984.28
2023-05-01T17:06:32.394Z,984.05
2023-05-01T17:08:59.068Z,973.90
2023-05-01T17:11:25.720Z,985.20
2023-05-01T17:13:52.558Z,980.35
2023-05-01T17:16:19.429Z,979.20
2023-05-01T17:18:46.573Z,982.13
2023-05-01T17:21:13.168Z,984.22
2023-05-01T17:23:39.817Z,980.60
2023-05-01T17:26:06.768Z,983.53
2023-05-01T17:28:33.373Z,977.07
2023-05-01T17:30:59.997Z,976.58
2023-05-01T17:33:30.188Z,984.35
2023-05-01T17:35:59.638Z,982.28
2023-05-01T17:38:26.717Z,987.90
2023-05-01T17:40:53.389Z,984.55
2023-05-01T17:43:20.715Z,979.92
2023-05-01T17:45:47.913Z,982.92
2023-05-01T17:48:14.632Z,984.38
2023-05-01T17:50:41.388Z,980.10
2023-05-01T17:53:09.351Z,988.17
2023-05-01T17:55:38.234Z,988.15
2023-05-01T17:58:04.965Z,982.30
2023-05-01T18:00:32.321Z,981.42
2023-05-01T18:02:59.203Z,975.33
2023-05-01T18:05:26.065Z,956.40
2023-05-01T18:07:52.675Z,954.83
2023-05-01T18:10:19.329Z,951.25
2023-05-01T18:12:47.067Z,942.35
2023-05-01T18:15:15.883Z,933.05
2023-05-01T18:17:46.176Z,936.67
2023-05-01T18:20:12.904Z,926.47
2023-05-01T18:22:39.532Z,921.58
2023-05-01T18:25:07.066Z,927.13
2023-05-01T18:27:33.733Z,929.13
2023-05-01T18:30:01.013Z,920.15
2023-05-01T18:32:43.352Z,905.78
2023-05-01T18:35:13.839Z,915.67
2023-05-01T18:37:42.299Z,907.10
2023-05-01T18:40:09.735Z,915.93
2023-05-01T18:42:36.541Z,898.13
2023-05-01T18:45:03.988Z,896.33
2023-05-01T18:47:32.416Z,900.77
2023-05-01T18:49:59.868Z,891.97
2023-05-01T18:52:28.038Z,890.40
2023-05-01T18:54:54.754Z,890.25
2023-05-01T18:57:22.113Z,890.15
2023-05-01T18:59:48.709Z,895.38
2023-05-01T19:02:15.464Z,890.08
2023-05-01T19:04:56.150Z,879.28
2023-05-01T19:07:26.296Z,882.85
2023-05-01T19:09:53.219Z,884.33
2023-05-01T19:12:19.843Z,880.60
2023-05-01T19:14:46.512Z,893.13
2023-05-01T19:17:13.136Z,878.50
2023-05-01T19:19:39.805Z,881.33
2023-05-01T19:22:07.160Z,877.50
2023-05-01T19:24:33.891Z,881.58
2023-05-01T19:27:03.173Z,891.60
2023-05-01T19:29:33.450Z,877.30
2023-05-01T19:32:00.263Z,884.97
2023-05-01T19:34:27.836Z,888.60
2023-05-01T19:36:56.888Z,886.20
2023-05-01T19:39:24.253Z,881.85
2023-05-01T19:41:51.164Z,894.00
2023-05-01T19:44:18.032Z,897.55
2023-05-01T19:46:45.043Z,907.80
2023-05-01T19:49:12.058Z,916.77
2023-05-01T19:51:39.128Z,915.55
2023-05-01T19:54:05.919Z,910.65
2023-05-01T19:56:32.556Z,920.10
2023-05-01T19:58:59.206Z,922.92
2023-05-01T20:01:25.963Z,922.53
2023-05-01T20:03:52.757Z,930.95
2023-05-01T20:06:19.518Z,925.30
2023-05-01T20:08:47.077Z,924.83
2023-05-01T20:11:13.966Z,918.20
2023-05-01T20:13:40.686Z,929.03
2023-05-01T20:16:09.489Z,921.03
2023-05-01T20:18:36.419Z,924.13
2023-05-01T20:21:03.090Z,921.90
2023-05-01T20:23:29.733Z,916.70
2023-05-01T20:25:56.534Z,918.60
2023-05-01T20:28:23.473Z,924.93
2023-05-01T20:30:50.270Z,927.03
2023-05-01T20:33:17.643Z,928.00
2023-05-01T20:35:45.208Z,915.28
2023-05-01T20:38:11.949Z,922.17
2023-05-01T20:40:40.360Z,923.15
2023-05-01T20:43:07.265Z,923.28
2023-05-01T20:45:34.162Z,923.78
2023-05-01T20:48:01.785Z,931.78
2023-05-01T20:50:29.123Z,927.40
2023-05-01T20:52:56.171Z,926.33
2023-05-01T20:55:23.705Z,919.40
2023-05-01T20:57:50.541Z,911.67
2023-05-01T21:00:17.241Z,910.35
2023-05-01T21:02:44.136Z,905.92
2023-05-01T21:05:10.941Z,923.42
2023-05-01T21:07:41.094Z,912.72
2023-05-01T21:10:10.065Z,918.60
2023-05-01T21:12:37.293Z,919.72
2023-05-01T21:15:04.684Z,918.72
2023-05-01T21:17:33.220Z,902.65
2023-05-01T21:20:00.331Z,897.83
2023-05-01T21:22:27.919Z,896.05
2023-05-01T21:24:57.520Z,886.53
2023-05-01T21:27:25.671Z,884.00
2023-05-01T21:29:58.040Z,885.92
2023-05-01T21:32:39.928Z,884.05
2023-05-01T21:35:08.085Z,886.83
2023-05-01T21:37:34.732Z,889.40
2023-05-01T21:40:02.365Z,897.65
2023-05-01T21:42:35.660Z,891.70
2023-05-01T21:45:10.162Z,891.83
2023-05-01T21:47:48.148Z,884.72
2023-05-01T21:50:16.834Z,903.30
2023-05-01T21:52:45.595Z,893.55
2023-05-01T21:55:17.932Z,901.70
2023-05-01T21:57:44.912Z,896.40
2023-05-01T22:00:12.535Z,907.63
2023-05-01T22:02:44.432Z,898.07
2023-05-01T22:05:13.203Z,896.72
2023-05-01T22:07:41.469Z,912.63
2023-05-01T22:10:10.378Z,904.58
2023-05-01T22:12:37.555Z,898.15
2023-05-01T22:15:04.625Z,901.35
2023-05-01T22:17:31.306Z,907.38
2023-05-01T22:19:58.127Z,910.42
2023-05-01T22:22:25.089Z,912.70
2023-05-01T22:24:51.723Z,909.45
2023-05-01T22:27:18.407Z,911.15
2023-05-01T22:29:44.997Z,901.17
2023-05-01T22:32:11.823Z,894.95
2023-05-01T22:34:38.568Z,897.45
2023-05-01T22:37:05.392Z,911.40
2023-05-01T22:39:33.506Z,896.35
2023-05-01T22:42:00.378Z,902.22
2023-05-01T22:44:27.626Z,914.60
2023-05-01T22:46:54.517Z,904.60
2023-05-01T22:49:21.550Z,910.80
2023-05-01T22:51:48.245Z,903.38
2023-05-01T22:54:14.878Z,906.85
2023-05-01T22:56:41.496Z,902.13
2023-05-01T22:59:08.083Z,906.47
